createdAt,value
2018-03-24T00:00:22.899Z,99.90
2018-03-24T00:02:50.438Z,99.90
2018-03-24T00:05:17.926Z,99.90
2018-03-24T00:07:45.439Z,99.90
2018-03-24T00:10:13.696Z,99.90
2018-03-24T00:12:41.212Z,99.90
2018-03-24T00:15:09.459Z,99.90
2018-03-24T00:17:36.979Z,99.90
2018-03-24T00:20:04.471Z,99.90
2018-03-24T00:22:31.991Z,99.90
2018-03-24T00:24:59.492Z,99.90
2018-03-24T00:27:27.005Z,99.90
2018-03-24T00:29:54.495Z,99.90
2018-03-24T00:32:21.998Z,99.90
2018-03-24T00:34:50.250Z,99.90
2018-03-24T00:37:17.775Z,99.90
2018-03-24T00:39:45.267Z,99.90
2018-03-24T00:42:12.760Z,99.90
2018-03-24T00:44:40.274Z,99.90
2018-03-24T00:47:08.527Z,99.90
2018-03-24T00:49:36.042Z,99.90
2018-03-24T00:52:03.548Z,99.90
2018-03-24T00:54:31.064Z,99.90
2018-03-24T00:56:59.324Z,99.90
2018-03-24T00:59:26.834Z,99.90
2018-03-24T01:01:55.075Z,99.90
2018-03-24T01:04:22.591Z,99.90
2018-03-24T01:06:50.847Z,99.90
2018-03-24T01:09:18.361Z,99.90
2018-03-24T01:11:45.867Z,99.90
2018-03-24T01:14:13.394Z,99.90
2018-03-24T01:16:41.640Z,99.90
2018-03-24T01:19:09.202Z,99.90
2018-03-24T01:21:36.681Z,99.90
2018-03-24T01:24:04.198Z,99.90
2018-03-24T01:26:32.459Z,99.90
2018-03-24T01:28:59.959Z,99.90
2018-03-24T01:31:27.473Z,99.90
2018-03-24T01:33:54.982Z,99.90
2018-03-24T01:36:22.480Z,99.90
2018-03-24T01:38:50.763Z,99.90
2018-03-24T01:41:19.012Z,99.90
2018-03-24T01:43:46.558Z,99.90
2018-03-24T01:46:14.054Z,99.90
2018-03-24T01:48:41.582Z,99.90
2018-03-24T01:51:09.104Z,99.90
2018-03-24T01:53:54.327Z,99.90
2018-03-24T01:56:21.811Z,99.90
2018-03-24T01:58:49.323Z,99.90
2018-03-24T02:01:16.806Z,99.90
2018-03-24T02:03:44.320Z,99.90
2018-03-24T02:06:21.382Z,99.90
2018-03-24T02:08:48.903Z,99.90
2018-03-24T02:11:16.394Z,99.90
2018-03-24T02:13:44.685Z,99.90
2018-03-24T02:16:12.175Z,99.90
2018-03-24T02:18:39.687Z,99.90
2018-03-24T02:21:17.846Z,99.90
2018-03-24T02:23:45.360Z,99.90
2018-03-24T02:26:12.882Z,99.90
2018-03-24T02:28:40.403Z,99.90
2018-03-24T02:31:07.892Z,99.90
2018-03-24T02:33:35.418Z,99.90
2018-03-24T02:36:02.897Z,99.90
2018-03-24T02:38:31.204Z,99.90
2018-03-24T02:40:58.691Z,99.90
2018-03-24T02:43:27.549Z,99.90
2018-03-24T02:45:55.039Z,99.90
2018-03-24T02:48:22.559Z,99.90
2018-03-24T02:50:50.061Z,99.90
2018-03-24T02:53:17.589Z,99.90
2018-03-24T02:55:45.075Z,99.90
2018-03-24T02:58:12.589Z,99.90
2018-03-24T03:00:40.099Z,99.90
2018-03-24T03:03:07.611Z,99.90
2018-03-24T03:05:35.143Z,99.90
2018-03-24T03:08:02.660Z,99.90
2018-03-24T03:10:30.164Z,99.90
2018-03-24T03:12:57.679Z,99.90
2018-03-24T03:15:25.163Z,99.90
2018-03-24T03:17:52.679Z,99.90
2018-03-24T03:20:20.926Z,99.90
2018-03-24T03:22:48.491Z,99.90
2018-03-24T03:25:15.972Z,99.90
2018-03-24T03:27:43.482Z,99.90
2018-03-24T03:30:16.795Z,99.90
2018-03-24T03:32:44.303Z,99.90
2018-03-24T03:35:11.798Z,99.90
2018-03-24T03:37:39.311Z,99.90
2018-03-24T03:40:07.561Z,99.90
2018-03-24T03:42:35.081Z,99.90
2018-03-24T03:45:03.323Z,99.90
2018-03-24T03:47:30.845Z,99.90
2018-03-24T03:49:59.090Z,99.90
2018-03-24T03:52:26.610Z,99.90
2018-03-24T03:54:54.118Z,99.90
2018-03-24T03:57:21.631Z,99.90
2018-03-24T03:59:49.879Z,99.90
2018-03-24T04:02:17.393Z,99.90
2018-03-24T04:04:45.656Z,99.90
2018-03-24T04:07:13.171Z,99.90
2018-03-24T04:09:40.647Z,99.90
2018-03-24T04:12:11.324Z,99.90
2018-03-24T04:14:38.816Z,99.90
2018-03-24T04:17:06.333Z,99.90
2018-03-24T04:19:35.824Z,99.90
2018-03-24T04:22:03.339Z,99.90
2018-03-24T04:24:30.819Z,99.90
2018-03-24T04:26:58.333Z,99.90
2018-03-24T04:29:25.820Z,99.90
2018-03-24T04:31:54.096Z,99.90
2018-03-24T04:34:21.577Z,99.90
2018-03-24T04:36:49.859Z,99.90
2018-03-24T04:39:18.110Z,99.90
2018-03-24T04:41:45.635Z,99.90
2018-03-24T04:44:13.887Z,99.90
2018-03-24T04:46:41.423Z,99.90
2018-03-24T04:49:08.907Z,99.90
2018-03-24T04:51:36.415Z,99.90
2018-03-24T04:54:03.932Z,99.90
2018-03-24T04:56:31.439Z,99.90
2018-03-24T04:58:58.959Z,99.90
2018-03-24T05:01:26.448Z,99.90
2018-03-24T05:03:54.320Z,99.90
2018-03-24T05:06:21.753Z,99.90
2018-03-24T05:08:49.267Z,99.90
2018-03-24T05:11:16.748Z,99.90
2018-03-24T05:13:44.263Z,99.90
2018-03-24T05:16:11.770Z,99.90
2018-03-24T05:18:39.278Z,99.90
2018-03-24T05:21:06.773Z,99.90
2018-03-24T05:23:34.291Z,99.90
2018-03-24T05:26:01.803Z,99.90
2018-03-24T05:28:29.324Z,99.90
2018-03-24T05:30:56.843Z,99.90
2018-03-24T05:33:24.324Z,99.90
2018-03-24T05:35:51.848Z,99.90
2018-03-24T05:38:19.351Z,99.90
2018-03-24T05:40:46.879Z,99.90
2018-03-24T05:43:14.362Z,99.90
2018-03-24T05:45:41.844Z,99.90
2018-03-24T05:48:09.355Z,99.90
2018-03-24T05:50:36.843Z,99.90
2018-03-24T05:53:05.119Z,99.90
2018-03-24T05:55:32.605Z,99.90
2018-03-24T05:58:00.890Z,99.90
2018-03-24T06:00:29.159Z,99.90
2018-03-24T06:02:56.672Z,99.90
2018-03-24T06:05:24.156Z,99.90
2018-03-24T06:07:51.666Z,99.90
2018-03-24T06:10:19.159Z,99.90
2018-03-24T06:12:46.679Z,99.90
2018-03-24T06:15:14.158Z,99.90
2018-03-24T06:17:41.678Z,99.90
2018-03-24T06:20:09.931Z,99.90
2018-03-24T06:22:37.449Z,99.90
2018-03-24T06:25:05.707Z,99.90
2018-03-24T06:27:33.238Z,99.90
2018-03-24T06:30:00.719Z,99.90
2018-03-24T06:32:28.239Z,99.90
2018-03-24T06:34:55.727Z,99.90
2018-03-24T06:37:23.247Z,99.90
2018-03-24T06:39:50.737Z,99.90
2018-03-24T06:42:18.256Z,99.90
2018-03-24T06:44:45.860Z,99.90
2018-03-24T06:47:14.103Z,99.90
2018-03-24T06:49:42.411Z,99.90
2018-03-24T06:52:09.926Z,99.90
2018-03-24T06:54:37.411Z,99.90
2018-03-24T06:57:04.924Z,99.90
2018-03-24T06:59:32.419Z,99.90
2018-03-24T07:01:59.927Z,99.90
2018-03-24T07:04:27.415Z,99.90
2018-03-24T07:06:55.699Z,99.90
2018-03-24T07:09:23.959Z,99.90
2018-03-24T07:11:51.473Z,99.90
2018-03-24T07:14:18.955Z,99.20
2018-03-24T07:16:46.467Z,98.10
2018-03-24T07:19:13.952Z,94.70
2018-03-24T07:21:42.136Z,90.20
2018-03-24T07:24:09.627Z,84.30
2018-03-24T07:26:37.171Z,75.80
2018-03-24T07:29:04.739Z,72.70
2018-03-24T07:31:32.256Z,68.10
2018-03-24T07:34:00.504Z,62.30
2018-03-24T07:36:28.025Z,62.30
2018-03-24T07:38:55.516Z,61.20
2018-03-24T07:41:23.031Z,62.70
2018-03-24T07:43:50.825Z,62.60
2018-03-24T07:46:19.115Z,64.80
2018-03-24T07:48:47.381Z,65.00
2018-03-24T07:51:14.895Z,65.00
2018-03-24T07:53:42.376Z,66.00
2018-03-24T07:56:09.911Z,66.00
2018-03-24T07:58:38.163Z,62.20
2018-03-24T08:01:05.687Z,62.00
2018-03-24T08:03:33.974Z,57.20
2018-03-24T08:06:01.503Z,57.20
2018-03-24T08:08:28.999Z,54.90
2018-03-24T08:10:56.510Z,51.00
2018-03-24T08:13:24.059Z,50.50
2018-03-24T08:15:51.539Z,49.60
2018-03-24T08:18:19.038Z,48.20
2018-03-24T08:20:46.547Z,48.80
2018-03-24T08:23:14.033Z,49.10
2018-03-24T08:25:41.576Z,48.60
2018-03-24T08:28:09.071Z,48.00
2018-03-24T08:30:36.592Z,46.40
2018-03-24T08:33:04.080Z,44.50
2018-03-24T08:35:31.612Z,44.30
2018-03-24T08:37:59.127Z,42.80
2018-03-24T08:40:26.648Z,42.90
2018-03-24T08:42:54.921Z,47.20
2018-03-24T08:45:22.432Z,47.10
2018-03-24T08:47:49.927Z,47.10
2018-03-24T08:50:21.262Z,47.60
2018-03-24T08:52:48.762Z,48.60
2018-03-24T08:55:16.277Z,47.70
2018-03-24T08:57:44.537Z,47.20
2018-03-24T09:00:16.268Z,47.40
2018-03-24T09:02:43.820Z,47.40
2018-03-24T09:05:12.128Z,46.30
2018-03-24T09:07:40.435Z,45.80
2018-03-24T09:10:07.990Z,45.80
2018-03-24T09:12:35.474Z,44.80
2018-03-24T09:15:03.044Z,44.60
2018-03-24T09:17:30.515Z,44.30
2018-03-24T09:19:58.029Z,46.00
2018-03-24T09:22:26.315Z,43.10
2018-03-24T09:24:53.840Z,43.00
2018-03-24T09:27:21.320Z,43.00
2018-03-24T09:29:48.807Z,42.60
2018-03-24T09:32:16.339Z,42.70
2018-03-24T09:34:44.937Z,42.70
2018-03-24T09:37:12.487Z,42.90
2018-03-24T09:39:40.783Z,38.50
2018-03-24T09:42:08.569Z,38.60
2018-03-24T09:44:36.128Z,38.50
2018-03-24T09:47:04.434Z,37.00
2018-03-24T09:49:31.991Z,37.00
2018-03-24T09:51:59.531Z,36.10
2018-03-24T09:54:27.057Z,36.80
2018-03-24T09:56:54.642Z,36.10
2018-03-24T09:59:23.091Z,36.70
2018-03-24T10:01:50.604Z,35.80
2018-03-24T10:04:18.102Z,33.80
2018-03-24T10:06:45.943Z,34.60
2018-03-24T10:09:13.475Z,35.20
2018-03-24T10:11:40.999Z,35.40
2018-03-24T10:14:08.495Z,35.70
2018-03-24T10:16:36.037Z,37.30
2018-03-24T10:19:03.555Z,39.60
2018-03-24T10:24:55.343Z,38.50
2018-03-24T10:27:22.835Z,37.90
2018-03-24T10:29:51.111Z,41.10
2018-03-24T10:32:18.605Z,41.10
2018-03-24T10:34:46.123Z,40.70
2018-03-24T10:37:13.627Z,38.30
2018-03-24T10:39:41.161Z,37.60
2018-03-24T10:42:08.644Z,37.90
2018-03-24T10:44:36.164Z,34.80
2018-03-24T10:47:03.657Z,34.40
2018-03-24T10:49:31.179Z,33.00
2018-03-24T10:51:58.671Z,33.10
2018-03-24T10:54:26.211Z,33.50
2018-03-24T10:56:53.733Z,33.40
2018-03-24T10:59:21.259Z,34.70
2018-03-24T11:01:48.751Z,36.40
2018-03-24T11:04:17.047Z,35.20
2018-03-24T11:06:45.302Z,35.60
2018-03-24T11:09:12.848Z,35.60
2018-03-24T11:11:40.389Z,37.00
2018-03-24T11:14:07.915Z,37.70
2018-03-24T11:16:35.409Z,38.50
2018-03-24T11:19:02.949Z,39.60
2018-03-24T11:21:30.444Z,39.80
2018-03-24T11:23:58.357Z,39.60
2018-03-24T11:26:25.860Z,40.20
2018-03-24T11:28:53.387Z,40.70
2018-03-24T11:31:21.650Z,43.40
2018-03-24T11:33:49.167Z,43.50
2018-03-24T11:36:16.705Z,44.60
2018-03-24T11:38:45.043Z,44.30
2018-03-24T11:41:12.552Z,44.20
2018-03-24T11:43:40.040Z,46.90
2018-03-24T11:46:08.378Z,48.60
2018-03-24T11:48:35.971Z,48.50
2018-03-24T11:51:03.495Z,49.20
2018-03-24T11:53:58.819Z,49.40
2018-03-24T11:56:27.067Z,50.20
2018-03-24T11:58:54.675Z,50.20
2018-03-24T12:01:22.158Z,50.80
2018-03-24T12:03:50.413Z,50.20
2018-03-24T12:06:18.108Z,49.60
2018-03-24T12:08:45.596Z,49.20
2018-03-24T12:11:13.125Z,49.20
2018-03-24T12:13:40.626Z,50.20
2018-03-24T12:16:08.911Z,49.90
2018-03-24T12:18:36.468Z,49.90
2018-03-24T12:21:04.038Z,49.40
2018-03-24T12:23:31.522Z,49.00
2018-03-24T12:25:59.039Z,49.60
2018-03-24T12:28:27.343Z,47.70
2018-03-24T12:30:54.855Z,49.70
2018-03-24T12:33:26.946Z,49.60
2018-03-24T12:35:55.116Z,49.80
2018-03-24T12:38:22.652Z,51.30
2018-03-24T12:40:50.155Z,50.90
2018-03-24T12:43:17.646Z,51.50
2018-03-24T12:45:45.952Z,51.50
2018-03-24T12:48:13.462Z,51.50
2018-03-24T12:50:40.993Z,52.10
2018-03-24T12:53:13.200Z,51.40
2018-03-24T12:55:40.784Z,51.00
2018-03-24T12:58:08.267Z,51.10
2018-03-24T13:00:47.525Z,50.50
2018-03-24T13:03:15.043Z,50.80
2018-03-24T13:05:42.572Z,51.10
2018-03-24T13:08:10.076Z,51.40
2018-03-24T13:10:38.371Z,49.70
2018-03-24T13:13:05.861Z,49.70
2018-03-24T13:15:33.375Z,51.00
2018-03-24T13:18:00.911Z,49.90
2018-03-24T13:20:28.455Z,49.30
2018-03-24T13:22:56.005Z,50.30
2018-03-24T13:25:23.524Z,51.20
2018-03-24T13:27:51.093Z,50.60
2018-03-24T13:30:18.611Z,50.00
2018-03-24T13:32:46.183Z,51.30
2018-03-24T13:35:13.700Z,51.30
2018-03-24T13:37:41.220Z,52.10
2018-03-24T13:40:08.760Z,52.40
2018-03-24T13:42:36.256Z,52.00
2018-03-24T13:45:03.784Z,51.40
2018-03-24T13:47:31.268Z,51.70
2018-03-24T13:49:58.803Z,51.50
2018-03-24T13:52:26.363Z,53.00
2018-03-24T13:54:53.874Z,52.40
2018-03-24T13:57:21.423Z,52.00
2018-03-24T13:59:49.055Z,51.80
2018-03-24T14:02:16.560Z,51.40
2018-03-24T14:04:44.883Z,52.60
2018-03-24T14:07:12.372Z,52.10
2018-03-24T14:09:39.995Z,51.40
2018-03-24T14:12:08.252Z,52.30
2018-03-24T14:14:38.607Z,52.20
2018-03-24T14:17:06.194Z,52.50
2018-03-24T14:19:33.720Z,52.30
2018-03-24T14:22:01.227Z,51.50
2018-03-24T14:24:28.748Z,51.40
2018-03-24T14:26:56.236Z,50.70
2018-03-24T14:29:23.754Z,51.50
2018-03-24T14:31:51.269Z,51.10
2018-03-24T14:34:18.792Z,50.20
2018-03-24T14:36:46.345Z,50.80
2018-03-24T14:39:13.859Z,52.20
2018-03-24T14:41:41.339Z,51.10
2018-03-24T14:44:11.099Z,50.60
2018-03-24T14:46:38.615Z,50.50
2018-03-24T14:49:18.263Z,50.40
2018-03-24T14:51:46.523Z,50.10
2018-03-24T14:54:14.047Z,50.10
2018-03-24T14:56:41.527Z,48.90
2018-03-24T14:59:09.121Z,48.00
2018-03-24T15:01:37.375Z,48.70
2018-03-24T15:04:04.900Z,48.70
2018-03-24T15:06:32.382Z,48.80
2018-03-24T15:08:59.902Z,48.40
2018-03-24T15:11:27.393Z,47.40
2018-03-24T15:13:54.907Z,47.90
2018-03-24T15:16:22.419Z,47.70
2018-03-24T15:18:49.980Z,48.00
2018-03-24T15:21:17.459Z,48.10
2018-03-24T15:23:44.983Z,46.40
2018-03-24T15:26:12.480Z,46.40
2018-03-24T15:31:53.092Z,46.70
2018-03-24T15:34:33.790Z,46.60
2018-03-24T15:37:01.272Z,46.60
2018-03-24T15:39:28.787Z,46.00
2018-03-24T15:41:56.268Z,45.20
2018-03-24T15:44:23.779Z,46.10
2018-03-24T15:46:51.272Z,46.80
2018-03-24T15:49:18.803Z,45.80
2018-03-24T15:51:46.299Z,45.00
2018-03-24T15:54:13.906Z,44.90
2018-03-24T15:56:41.671Z,45.40
2018-03-24T15:59:09.190Z,45.10
2018-03-24T16:01:37.479Z,45.60
2018-03-24T16:04:05.025Z,45.60
2018-03-24T16:06:32.506Z,46.30
2018-03-24T16:09:00.031Z,46.40
2018-03-24T16:11:27.528Z,46.90
2018-03-24T16:13:55.038Z,47.20
2018-03-24T16:16:23.287Z,47.30
2018-03-24T16:18:50.810Z,47.30
2018-03-24T16:21:19.080Z,46.80
2018-03-24T16:23:46.608Z,46.90
2018-03-24T16:26:14.096Z,47.40
2018-03-24T16:28:41.618Z,47.10
2018-03-24T16:31:09.107Z,46.80
2018-03-24T16:33:36.627Z,47.30
2018-03-24T16:36:04.107Z,47.50
2018-03-24T16:38:31.638Z,47.10
2018-03-24T16:40:59.125Z,47.50
2018-03-24T16:43:26.646Z,47.50
2018-03-24T16:45:54.150Z,48.20
2018-03-24T16:48:21.660Z,48.80
2018-03-24T16:50:49.147Z,49.30
2018-03-24T16:53:16.661Z,49.70
2018-03-24T16:55:44.147Z,50.50
2018-03-24T16:58:11.650Z,50.90
2018-03-24T17:00:39.907Z,50.50
2018-03-24T17:03:07.424Z,50.40
2018-03-24T17:05:34.938Z,50.50
2018-03-24T17:08:02.492Z,50.60
2018-03-24T17:10:30.009Z,51.50
2018-03-24T17:12:57.528Z,52.00
2018-03-24T17:15:25.042Z,52.40
2018-03-24T17:17:52.570Z,52.30
2018-03-24T17:20:20.058Z,52.00
2018-03-24T17:22:47.566Z,52.40
2018-03-24T17:25:15.826Z,52.10
2018-03-24T17:27:43.350Z,52.10
2018-03-24T17:30:11.616Z,53.00
2018-03-24T17:32:39.143Z,53.00
2018-03-24T17:35:06.631Z,53.70
2018-03-24T17:37:34.151Z,54.20
2018-03-24T17:40:02.399Z,55.10
2018-03-24T17:42:29.910Z,55.10
2018-03-24T17:44:58.159Z,55.40
2018-03-24T17:47:25.671Z,55.40
2018-03-24T17:49:53.919Z,57.40
2018-03-24T17:52:21.430Z,57.20
2018-03-24T17:54:49.359Z,57.90
2018-03-24T17:57:16.883Z,58.20
2018-03-24T17:59:44.365Z,58.40
2018-03-24T18:02:11.876Z,59.20
2018-03-24T18:04:39.363Z,58.80
2018-03-24T18:07:06.892Z,58.80
2018-03-24T18:09:34.393Z,59.40
2018-03-24T18:12:01.903Z,60.30
2018-03-24T18:14:29.394Z,60.90
2018-03-24T18:16:56.939Z,61.20
2018-03-24T18:19:24.918Z,60.90
2018-03-24T18:21:52.474Z,60.50
2018-03-24T18:24:20.013Z,60.70
2018-03-24T18:26:47.554Z,61.00
2018-03-24T18:29:15.823Z,62.40
2018-03-24T18:31:43.343Z,62.50
2018-03-24T18:34:10.829Z,63.00
2018-03-24T18:36:38.335Z,63.80
2018-03-24T18:39:05.847Z,64.80
2018-03-24T18:41:33.358Z,64.40
2018-03-24T18:44:00.844Z,64.60
2018-03-24T18:46:28.356Z,64.90
2018-03-24T18:48:55.852Z,65.40
2018-03-24T18:51:23.383Z,66.10
2018-03-24T18:53:51.630Z,67.30
2018-03-24T18:56:19.141Z,67.30
2018-03-24T18:58:46.650Z,68.20
2018-03-24T19:01:14.183Z,68.80
2018-03-24T19:03:42.432Z,71.40
2018-03-24T19:06:09.960Z,71.40
2018-03-24T19:08:38.214Z,74.50
2018-03-24T19:11:05.724Z,73.70
2018-03-24T19:13:33.220Z,75.10
2018-03-24T19:16:00.750Z,76.40
2018-03-24T19:18:30.793Z,77.50
2018-03-24T19:20:59.708Z,78.50
2018-03-24T19:23:27.675Z,79.70
2018-03-24T19:25:55.967Z,80.60
2018-03-24T19:28:23.490Z,80.60
2018-03-24T19:30:50.971Z,80.20
2018-03-24T19:33:18.557Z,79.80
2018-03-24T19:35:46.040Z,79.70
2018-03-24T19:38:14.335Z,80.00
2018-03-24T19:40:41.815Z,80.00
2018-03-24T19:43:17.364Z,81.10
2018-03-24T19:45:45.130Z,81.10
2018-03-24T19:48:12.620Z,81.90
2018-03-24T19:50:40.863Z,83.20
2018-03-24T19:53:08.384Z,83.20
2018-03-24T19:55:35.879Z,84.10
2018-03-24T19:58:03.400Z,84.20
2018-03-24T20:00:30.887Z,83.80
2018-03-24T20:02:59.224Z,83.70
2018-03-24T20:05:27.191Z,83.70
2018-03-24T20:07:54.718Z,83.60
2018-03-24T20:10:46.397Z,83.70
2018-03-24T20:13:13.922Z,83.90
2018-03-24T20:15:41.443Z,84.40
2018-03-24T20:18:09.700Z,85.90
2018-03-24T20:20:37.207Z,85.80
2018-03-24T20:23:05.462Z,86.70
2018-03-24T20:25:32.976Z,86.70
2018-03-24T20:28:00.484Z,86.90
2018-03-24T20:30:27.996Z,87.00
2018-03-24T20:32:55.555Z,87.50
2018-03-24T20:35:23.074Z,88.00
2018-03-24T20:37:50.575Z,88.50
2018-03-24T20:40:18.065Z,88.50
2018-03-24T20:42:45.611Z,89.10
2018-03-24T20:45:13.136Z,89.70
2018-03-24T20:47:41.468Z,90.00
2018-03-24T20:50:08.936Z,90.00
2018-03-24T20:52:36.585Z,90.10
2018-03-24T20:55:04.122Z,90.30
2018-03-24T20:57:31.631Z,90.70
2018-03-24T20:59:59.203Z,91.00
2018-03-24T21:02:26.747Z,91.30
2018-03-24T21:04:54.263Z,91.50
2018-03-24T21:07:21.783Z,91.90
2018-03-24T21:09:49.331Z,92.20
2018-03-24T21:12:16.817Z,92.70
2018-03-24T21:14:44.309Z,92.70
2018-03-24T21:17:12.588Z,92.60
2018-03-24T21:19:40.066Z,92.20
2018-03-24T21:22:08.358Z,92.00
2018-03-24T21:24:36.646Z,92.20
2018-03-24T21:27:04.946Z,92.40
2018-03-24T21:29:33.212Z,92.60
2018-03-24T21:32:00.727Z,92.60
2018-03-24T21:34:28.207Z,92.60
2018-03-24T21:36:56.516Z,93.00
2018-03-24T21:39:24.012Z,93.00
2018-03-24T21:41:51.565Z,93.10
2018-03-24T21:44:19.053Z,93.30
2018-03-24T21:46:46.566Z,93.70
2018-03-24T21:49:14.095Z,94.20
2018-03-24T21:51:41.607Z,94.90
2018-03-24T21:54:09.095Z,95.10
2018-03-24T21:56:36.660Z,95.50
2018-03-24T21:59:04.147Z,95.90
2018-03-24T22:01:31.659Z,96.20
2018-03-24T22:03:59.156Z,96.30
2018-03-24T22:06:26.708Z,96.40
2018-03-24T22:08:54.197Z,96.30
2018-03-24T22:11:21.730Z,96.50
2018-03-24T22:13:49.224Z,96.70
2018-03-24T22:16:16.732Z,96.80
2018-03-24T22:18:44.223Z,96.90
2018-03-24T22:21:11.792Z,96.90
2018-03-24T22:23:39.377Z,96.90
2018-03-24T22:26:06.919Z,97.00
2018-03-24T22:28:34.427Z,97.00
2018-03-24T22:31:01.968Z,97.10
2018-03-24T22:33:29.451Z,97.40
2018-03-24T22:35:56.959Z,97.80
2018-03-24T22:38:24.454Z,97.70
2018-03-24T22:40:52.755Z,97.80
2018-03-24T22:43:20.271Z,97.80
2018-03-24T22:45:47.796Z,97.70
2018-03-24T22:48:15.281Z,98.00
2018-03-24T22:50:42.819Z,98.30
2018-03-24T22:53:11.067Z,99.30
2018-03-24T22:55:38.611Z,99.10
2018-03-24T22:58:06.098Z,99.70
2018-03-24T23:00:33.603Z,99.90
2018-03-24T23:03:01.080Z,99.90
2018-03-24T23:05:28.595Z,99.90
2018-03-24T23:07:56.083Z,99.90
2018-03-24T23:10:23.591Z,99.90
2018-03-24T23:12:51.071Z,99.90
2018-03-24T23:15:18.590Z,99.90
2018-03-24T23:17:46.075Z,99.90
2018-03-24T23:20:13.594Z,99.90
2018-03-24T23:22:41.852Z,99.90
2018-03-24T23:25:09.364Z,99.90
2018-03-24T23:27:37.615Z,99.90
2018-03-24T23:30:05.127Z,99.90
2018-03-24T23:35:39.700Z,99.90
2018-03-24T23:38:07.952Z,99.90
2018-03-24T23:40:35.485Z,99.90
2018-03-24T23:43:02.966Z,99.90
2018-03-24T23:45:30.516Z,99.90
2018-03-24T23:47:58.002Z,99.90
2018-03-24T23:50:25.541Z,99.90
2018-03-24T23:52:53.803Z,99.90
2018-03-24T23:55:21.316Z,99.90
2018-03-24T23:57:48.799Z,99.90
